Time;durP1;ratioP1;P1;durP2;ratioP2;P2;SDS_P1;SDS_P2;PMS_P1;PMS_P2;Temp;Humidity;BMP_temperature;BMP_pressure;BME280_temperature;BME280_humidity;BME280_pressure;Samples;Min_cycle;Max_cycle;Signal;HPM_P1;HPM_P2
2020/12/03 00:01:02;;;;;;;35.90;22.87;;;;;;;-3.25;84.66;99941.39;1786582;79;25852;-68
2020/12/03 00:03:36;;;;;;;30.20;18.13;;;;;;;-3.24;84.72;99930.24;1785480;79;26339;-68
2020/12/03 00:06:17;;;;;;;34.63;20.77;;;;;;;-3.40;84.81;99913.77;1786986;80;26007;-68
2020/12/03 00:08:50;;;;;;;35.20;20.53;;;;;;;-3.40;84.81;99913.77;1786977;79;25072;-68
2020/12/03 00:11:17;;;;;;;35.47;22.97;;;;;;;-3.31;84.65;99920.94;1786847;79;26319;-69
2020/12/03 00:13:44;;;;;;;27.67;16.77;;;;;;;-3.28;84.79;99918.31;1786760;79;26336;-68
2020/12/03 00:16:11;;;;;;;32.37;19.53;;;;;;;-3.27;85.07;99909.70;1786813;79;26274;-69
2020/12/03 00:18:38;;;;;;;30.03;18.63;;;;;;;-3.41;84.95;99887.63;1786940;80;25167;-69
2020/12/03 00:21:08;;;;;;;28.60;17.87;;;;;;;-3.38;84.83;99904.30;1786771;80;25904;-69
2020/12/03 00:23:36;;;;;;;31.30;19.70;;;;;;;-3.41;84.95;99896.63;1786917;79;25905;-69
2020/12/03 00:26:04;;;;;;;33.90;19.10;;;;;;;-3.42;84.89;99892.38;1786807;80;25269;-68
2020/12/03 00:28:34;;;;;;;33.20;20.30;;;;;;;-3.41;84.98;99894.06;1786922;80;26225;-69
2020/12/03 00:31:01;;;;;;;32.10;18.07;;;;;;;-3.43;85.06;99881.67;1786866;80;26456;-69
2020/12/03 00:33:28;;;;;;;32.27;19.30;;;;;;;-3.45;85.20;99874.42;1786769;80;26083;-68
2020/12/03 00:35:54;;;;;;;30.63;18.50;;;;;;;-3.46;85.09;99883.45;1786954;79;26364;-68
2020/12/03 00:38:22;;;;;;;32.97;20.20;;;;;;;-3.62;85.18;99884.98;1786873;79;26019;-68
2020/12/03 00:40:49;;;;;;;30.77;19.90;;;;;;;-3.62;85.18;99884.98;1786991;79;25266;-69
2020/12/03 00:43:16;;;;;;;28.97;17.70;;;;;;;-3.61;85.26;99878.11;1786930;79;26020;-68
2020/12/03 00:45:46;;;;;;;29.93;17.67;;;;;;;-3.63;85.20;99874.72;1786862;79;26027;-68
2020/12/03 00:48:15;;;;;;;27.27;16.43;;;;;;;-3.68;85.56;99872.21;1786891;80;25892;-68
2020/12/03 00:50:51;;;;;;;26.60;16.80;;;;;;;-3.62;85.49;99866.11;1834123;76;26665;-70
2020/12/03 00:53:18;;;;;;;27.10;16.80;;;;;;;-3.67;85.43;99867.49;1787548;80;25325;-67
2020/12/03 00:55:46;;;;;;;30.50;18.77;;;;;;;-3.69;85.52;99863.23;1787520;80;25962;-67
2020/12/03 00:58:14;;;;;;;29.30;18.43;;;;;;;-3.67;85.44;99870.06;1787442;79;26406;-68
2020/12/03 01:00:41;;;;;;;31.97;19.13;;;;;;;-3.69;85.65;99872.23;1787538;79;25885;-68
2020/12/03 01:03:08;;;;;;;29.00;17.33;;;;;;;-3.69;85.61;99872.23;1787619;79;25901;-68
2020/12/03 01:05:35;;;;;;;31.17;19.33;;;;;;;-3.71;85.93;99867.56;1787445;80;25940;-68
2020/12/03 01:08:03;;;;;;;35.03;21.23;;;;;;;-3.70;85.84;99862.81;1782872;79;25968;-68
2020/12/03 01:10:32;;;;;;;33.17;19.50;;;;;;;-3.66;85.76;99865.31;1787519;79;25999;-68
2020/12/03 01:13:00;;;;;;;34.97;23.33;;;;;;;-3.62;85.66;99855.41;1787586;79;25934;-68
2020/12/03 01:15:27;;;;;;;35.10;20.83;;;;;;;-3.57;85.75;99854.03;1787396;79;26365;-68
2020/12/03 01:17:54;;;;;;;38.17;22.63;;;;;;;-3.51;85.77;99855.67;1787410;79;26431;-68
2020/12/03 01:20:24;;;;;;;30.03;17.80;;;;;;;-3.50;85.81;99862.08;1787404;79;26026;-68
2020/12/03 01:22:51;;;;;;;36.07;21.73;;;;;;;-3.50;85.78;99857.35;1787374;79;25892;-69
2020/12/03 01:25:20;;;;;;;32.33;19.47;;;;;;;-3.51;85.74;99852.66;1787579;80;25904;-68
2020/12/03 01:27:46;;;;;;;36.37;20.87;;;;;;;-3.55;85.67;99842.86;1787469;80;25906;-68
2020/12/03 01:30:13;;;;;;;26.00;16.10;;;;;;;-3.52;85.75;99839.82;1787552;80;26312;-68
2020/12/03 01:32:40;;;;;;;28.33;17.50;;;;;;;-3.51;85.95;99835.11;1787546;79;26417;-69
2020/12/03 01:35:09;;;;;;;29.73;18.17;;;;;;;-3.50;85.83;99830.35;1787405;79;25927;-69
2020/12/03 01:37:37;;;;;;;34.93;21.80;;;;;;;-3.55;85.94;99826.59;1787510;80;25900;-69
2020/12/03 01:40:09;;;;;;;34.27;19.03;;;;;;;-3.57;85.89;99827.03;1787573;80;26039;-68
2020/12/03 01:42:41;;;;;;;35.63;20.73;;;;;;;-3.56;86.00;99824.89;1787491;80;25895;-69
2020/12/03 01:45:48;;;;;;;34.73;21.23;;;;;;;-3.52;86.17;99826.97;1787600;79;25913;-69
2020/12/03 01:48:43;;;;;;;33.50;19.33;;;;;;;-3.43;86.09;99815.25;1853036;76;26825;-68
2020/12/03 01:51:18;;;;;;;30.97;18.87;;;;;;;-3.48;86.05;99809.34;1803185;78;25333;-68
2020/12/03 01:53:45;;;;;;;31.10;19.00;;;;;;;-3.45;86.04;99810.55;1790098;80;26047;-67
2020/12/03 01:56:32;;;;;;;27.40;16.07;;;;;;;-3.43;86.04;99801.11;1789952;79;25937;-68
2020/12/03 01:58:59;;;;;;;30.50;19.23;;;;;;;-3.42;85.95;99798.52;1790170;79;25866;-68
2020/12/03 02:01:26;;;;;;;31.67;19.77;;;;;;;-3.39;85.89;99797.59;1789930;80;26450;-67
2020/12/03 02:03:53;;;;;;;30.80;18.60;;;;;;;-3.36;85.85;99793.23;1790061;80;25944;-68
2020/12/03 02:06:25;;;;;;;30.17;18.30;;;;;;;-3.33;85.63;99800.48;1789947;78;25930;-68
2020/12/03 02:08:52;;;;;;;31.93;19.77;;;;;;;-3.39;85.79;99770.14;1789988;80;25901;-67
2020/12/03 02:11:20;;;;;;;31.13;19.33;;;;;;;-3.39;85.79;99770.14;1789990;79;25194;-68
2020/12/03 02:13:59;;;;;;;30.40;18.50;;;;;;;-3.23;85.72;99796.89;1790089;78;26312;-67
2020/12/03 02:16:28;;;;;;;29.67;19.00;;;;;;;-3.19;85.68;99780.06;1790188;80;25944;-67
2020/12/03 02:18:55;;;;;;;32.67;19.53;;;;;;;-3.17;85.39;99759.45;1761529;80;25986;-68
2020/12/03 02:21:22;;;;;;;27.87;18.33;;;;;;;-3.17;85.39;99759.45;1789904;80;25229;-68
2020/12/03 02:23:48;;;;;;;32.33;19.37;;;;;;;-3.26;85.34;99742.92;1789918;78;25805;-68
2020/12/03 02:26:16;;;;;;;25.27;16.47;;;;;;;-3.14;85.20;99762.42;1789917;78;25324;-68
2020/12/03 02:28:42;;;;;;;32.07;20.20;;;;;;;-3.09;85.30;99764.02;1790024;80;25688;-68
2020/12/03 02:31:09;;;;;;;33.80;20.83;;;;;;;-3.08;85.25;99763.15;1790002;78;26407;-68
2020/12/03 02:33:36;;;;;;;30.27;18.07;;;;;;;-3.06;85.16;99760.55;1790030;79;26049;-68
2020/12/03 02:36:04;;;;;;;28.90;17.57;;;;;;;-3.06;85.04;99756.23;1761464;80;26007;-68
2020/12/03 02:38:30;;;;;;;33.40;19.73;;;;;;;-3.05;85.03;99754.09;1789931;80;25619;-68
2020/12/03 02:41:00;;;;;;;33.57;18.90;;;;;;;-3.02;85.31;99739.01;1790048;80;25206;-68
2020/12/03 02:43:28;;;;;;;30.03;18.77;;;;;;;-3.11;84.93;99737.47;1789400;80;25127;-68
2020/12/03 02:45:55;;;;;;;28.43;18.27;;;;;;;-3.01;84.93;99745.86;1789770;80;26284;-68
2020/12/03 02:48:21;;;;;;;27.70;17.17;;;;;;;-2.99;84.96;99741.52;1782880;79;25194;-68
2020/12/03 02:50:48;;;;;;;30.50;18.53;;;;;;;-2.99;84.93;99741.08;1781497;79;25979;-68
2020/12/03 02:53:16;;;;;;;30.17;19.17;;;;;;;-3.00;84.81;99741.10;1781662;79;26131;-68
2020/12/03 02:55:42;;;;;;;32.63;19.73;;;;;;;-3.12;84.93;99720.78;1781714;80;25294;-68
2020/12/03 02:58:09;;;;;;;34.53;21.57;;;;;;;-3.12;84.93;99720.78;1781454;79;25305;-68
2020/12/03 03:00:36;;;;;;;32.47;19.30;;;;;;;-3.02;84.81;99730.87;1781092;79;25297;-68
2020/12/03 03:03:03;;;;;;;32.20;20.10;;;;;;;-3.04;84.69;99739.03;1781007;80;25329;-68
2020/12/03 03:05:29;;;;;;;35.00;20.77;;;;;;;-3.06;84.46;99737.39;1781113;79;25941;-68
2020/12/03 03:07:56;;;;;;;29.13;18.13;;;;;;;-3.06;84.46;99737.39;1780934;80;25791;-68
2020/12/03 03:10:23;;;;;;;34.53;21.17;;;;;;;-3.05;84.78;99743.80;1781108;79;25877;-68
2020/12/03 03:12:50;;;;;;;31.80;18.87;;;;;;;-3.02;84.62;99735.14;1781119;79;25234;-68
2020/12/03 03:15:17;;;;;;;28.63;18.13;;;;;;;-3.02;84.62;99735.14;1781184;80;25202;-68
2020/12/03 03:17:44;;;;;;;28.30;16.67;;;;;;;-3.12;84.73;99722.90;1781095;79;25269;-68
2020/12/03 03:20:12;;;;;;;33.20;19.47;;;;;;;-3.05;84.76;99739.06;1781068;80;26506;-68
2020/12/03 03:22:42;;;;;;;29.40;17.23;;;;;;;-3.12;84.73;99720.78;1781050;79;25285;-68
2020/12/03 03:25:09;;;;;;;31.87;19.07;;;;;;;-3.05;84.68;99729.64;1781215;79;26302;-68
2020/12/03 03:27:35;;;;;;;30.33;18.73;;;;;;;-3.03;84.79;99730.90;1781056;80;25847;-68
2020/12/03 03:30:05;;;;;;;28.27;16.93;;;;;;;-3.03;84.79;99730.90;1781069;79;25250;-68
2020/12/03 03:32:32;;;;;;;29.73;17.87;;;;;;;-3.01;84.65;99733.83;1780956;79;25893;-68
2020/12/03 03:34:59;;;;;;;28.53;17.27;;;;;;;-2.96;84.73;99730.33;1780921;79;26340;-68
2020/12/03 03:37:26;;;;;;;31.30;19.90;;;;;;;-3.00;84.42;99721.39;1780944;80;26003;-68
2020/12/03 03:39:52;;;;;;;39.00;23.60;;;;;;;-3.11;84.29;99704.02;1781039;79;25064;-68
2020/12/03 03:42:19;;;;;;;37.27;21.37;;;;;;;-3.11;84.29;99704.02;1781023;79;25217;-69
2020/12/03 03:44:46;;;;;;;38.87;21.60;;;;;;;-2.96;84.27;99707.17;1781004;79;25976;-69
2020/12/03 03:47:13;;;;;;;29.53;18.60;;;;;;;-2.96;84.27;99707.17;1778465;80;25490;-69
2020/12/03 03:49:39;;;;;;;35.83;21.13;;;;;;;-2.92;84.40;99692.06;1770416;81;26051;-69
2020/12/03 03:52:06;;;;;;;32.80;18.43;;;;;;;-2.92;84.40;99692.06;1770209;79;25289;-69
2020/12/03 03:54:33;;;;;;;32.53;18.80;;;;;;;-2.92;84.27;99695.92;1770423;81;25910;-68
2020/12/03 03:56:59;;;;;;;31.47;19.17;;;;;;;-2.92;84.16;99690.32;1748954;81;25677;-69
2020/12/03 03:59:26;;;;;;;32.97;19.93;;;;;;;-2.96;84.13;99691.28;1770364;79;26010;-69
2020/12/03 04:01:53;;;;;;;32.20;20.07;;;;;;;-3.06;84.13;99672.61;1770229;79;25258;-69
2020/12/03 04:04:20;;;;;;;34.13;21.07;;;;;;;-2.97;84.11;99685.72;1770400;79;25336;-69
2020/12/03 04:06:46;;;;;;;34.43;19.80;;;;;;;-3.00;83.92;99667.34;1770445;81;25274;-68
2020/12/03 04:09:13;;;;;;;34.13;21.27;;;;;;;-3.06;83.78;99657.17;1770252;79;25618;-69
2020/12/03 04:11:40;;;;;;;35.97;20.77;;;;;;;-3.00;83.89;99671.63;1770164;79;25298;-69
2020/12/03 04:14:07;;;;;;;34.40;21.87;;;;;;;-3.09;83.84;99646.10;1770357;80;25279;-68
2020/12/03 04:16:33;;;;;;;33.87;20.10;;;;;;;-3.02;83.89;99660.10;1770371;79;25198;-68
2020/12/03 04:19:00;;;;;;;32.37;17.50;;;;;;;-3.02;83.89;99654.95;1770328;81;25363;-68
2020/12/03 04:21:27;;;;;;;30.90;18.53;;;;;;;-3.13;83.97;99636.32;1770244;79;25203;-69
2020/12/03 04:23:54;;;;;;;29.53;18.93;;;;;;;-3.01;83.98;99654.05;1770320;81;25942;-68
2020/12/03 04:26:21;;;;;;;28.83;17.40;;;;;;;-2.95;84.04;99645.80;1770280;81;25266;-68
2020/12/03 04:28:47;;;;;;;35.63;20.50;;;;;;;-2.87;83.78;99631.87;1770428;81;26032;-68
2020/12/03 04:31:15;;;;;;;35.57;21.80;;;;;;;-2.87;83.78;99631.87;1770209;79;25724;-69
2020/12/03 04:33:42;;;;;;;32.70;20.57;;;;;;;-2.85;83.83;99626.27;1770302;81;25068;-69
2020/12/03 04:36:09;;;;;;;38.00;22.53;;;;;;;-2.84;83.75;99621.95;1770248;79;25269;-70
2020/12/03 04:38:36;;;;;;;28.23;18.23;;;;;;;-2.92;83.73;99604.55;1770284;79;25305;-70
2020/12/03 04:41:03;;;;;;;33.20;19.80;;;;;;;-2.80;83.80;99624.85;1770364;80;25116;-69
2020/12/03 04:43:41;;;;;;;36.77;21.67;;;;;;;-2.80;83.73;99621.86;1770329;81;25266;-69
2020/12/03 04:46:36;;;;;;;31.53;18.90;;;;;;;-2.78;83.81;99617.09;1770043;79;25339;-69
2020/12/03 04:49:38;;;;;;;37.03;22.20;;;;;;;-2.76;83.77;99622.63;1774938;80;25225;-69
2020/12/03 04:52:45;;;;;;;34.90;19.77;;;;;;;-2.77;83.89;99627.36;1775689;79;25195;-70
2020/12/03 04:55:46;;;;;;;27.83;16.53;;;;;;;-2.78;83.76;99623.11;1722311;83;25245;-69
2020/12/03 04:58:33;;;;;;;30.53;17.03;;;;;;;-2.78;83.76;99623.11;1778270;79;25202;-69
2020/12/03 05:01:12;;;;;;;38.10;22.43;;;;;;;-2.78;83.80;99618.38;1751209;79;26024;-69
2020/12/03 05:03:50;;;;;;;40.40;23.00;;;;;;;-2.75;83.84;99629.45;1780785;79;25301;-69
2020/12/03 05:06:28;;;;;;;37.13;22.07;;;;;;;-2.74;83.77;99627.30;1781047;79;25297;-69
2020/12/03 05:09:00;;;;;;;37.73;22.00;;;;;;;-2.70;83.79;99618.63;1779838;80;25288;-70
2020/12/03 05:11:41;;;;;;;34.03;21.13;;;;;;;-2.65;83.87;99615.51;1776910;79;25308;-69
2020/12/03 05:14:48;;;;;;;31.10;19.20;;;;;;;-2.62;83.74;99611.55;1779087;79;25886;-70
2020/12/03 05:17:26;;;;;;;36.87;21.40;;;;;;;-2.58;83.46;99607.62;1780885;80;25269;-67
2020/12/03 05:20:01;;;;;;;37.93;21.13;;;;;;;-2.62;83.27;99609.42;1781125;80;25194;-68
2020/12/03 05:22:28;;;;;;;41.33;23.83;;;;;;;-2.59;83.45;99604.20;1780956;80;25333;-68
2020/12/03 05:24:55;;;;;;;44.03;24.70;;;;;;;-2.57;83.33;99604.17;1781078;79;25099;-67
2020/12/03 05:27:31;;;;;;;37.97;21.80;;;;;;;-2.55;83.45;99606.26;1780859;79;25265;-68
2020/12/03 05:30:03;;;;;;;38.47;22.03;;;;;;;-2.54;83.39;99602.81;1751016;80;25265;-68
2020/12/03 05:32:30;;;;;;;39.37;22.63;;;;;;;-2.53;83.33;99591.61;1781114;79;25150;-69
2020/12/03 05:34:57;;;;;;;33.60;19.80;;;;;;;-2.51;83.39;99597.14;1751087;80;25347;-69
2020/12/03 05:37:26;;;;;;;40.60;23.10;;;;;;;-2.53;83.07;99596.34;1781077;80;25110;-69
2020/12/03 05:39:56;;;;;;;43.77;25.43;;;;;;;-2.49;83.37;99591.50;1780976;79;25214;-68
2020/12/03 05:42:33;;;;;;;40.03;21.80;;;;;;;-2.47;83.32;99588.89;1750658;80;25268;-68
2020/12/03 05:45:12;;;;;;;51.63;26.67;;;;;;;-2.46;83.10;99586.73;1780894;80;25693;-68
2020/12/03 05:47:42;;;;;;;43.90;24.90;;;;;;;-2.49;82.97;99588.92;1749348;80;25886;-68
2020/12/03 05:50:16;;;;;;;44.47;24.73;;;;;;;-2.46;83.11;99592.72;1748827;80;25336;-69
2020/12/03 05:53:12;;;;;;;42.47;25.73;;;;;;;-2.42;83.14;99587.05;1770234;81;25151;-69
2020/12/03 05:55:39;;;;;;;38.90;22.17;;;;;;;-2.39;82.82;99588.27;1770085;79;25310;-69
2020/12/03 05:58:22;;;;;;;43.20;25.90;;;;;;;-2.41;82.88;99581.02;1770163;79;25749;-69
2020/12/03 06:00:50;;;;;;;40.07;21.90;;;;;;;-2.42;82.81;99574.16;1770236;81;25633;-69
2020/12/03 06:03:52;;;;;;;33.40;19.10;;;;;;;-2.44;82.65;99575.94;1770188;81;25330;-69
2020/12/03 06:06:50;;;;;;;41.77;23.00;;;;;;;-2.46;82.68;99572.56;1770188;79;25605;-69
2020/12/03 06:09:22;;;;;;;37.50;21.87;;;;;;;-2.46;82.79;99573.86;1770009;81;25309;-69
2020/12/03 06:12:06;;;;;;;37.47;21.90;;;;;;;-2.45;82.92;99575.52;1966871;72;26493;-68
2020/12/03 06:15:13;;;;;;;38.50;23.37;;;;;;;-2.49;82.99;99570.90;1934163;73;25246;-68
2020/12/03 06:18:22;;;;;;;39.70;22.57;;;;;;;-2.49;82.96;99572.19;1935461;74;25725;-68
2020/12/03 06:21:24;;;;;;;36.83;21.33;;;;;;;-2.48;83.03;99576.89;1899662;74;25301;-68
2020/12/03 06:24:36;;;;;;;36.57;20.67;;;;;;;-2.42;83.00;99574.16;1935370;73;25694;-69
2020/12/03 06:27:33;;;;;;;37.43;20.93;;;;;;;-2.42;82.89;99571.14;1935287;73;25236;-68
2020/12/03 06:30:23;;;;;;;36.07;20.77;;;;;;;-2.41;82.87;99572.00;1914991;74;25104;-69
2020/12/03 06:33:08;;;;;;;41.43;24.53;;;;;;;-2.39;82.78;99563.79;1900515;74;25717;-69
2020/12/03 06:36:03;;;;;;;40.40;22.80;;;;;;;-2.41;82.82;99559.13;1935131;74;25231;-69
2020/12/03 06:39:05;;;;;;;41.07;23.73;;;;;;;-2.39;82.74;99557.35;1935248;73;25299;-68
2020/12/03 06:41:40;;;;;;;41.03;23.27;;;;;;;-2.39;82.79;99553.48;1933736;73;25803;-68
2020/12/03 06:44:26;;;;;;;48.20;26.37;;;;;;;-2.36;82.85;99557.70;1899669;73;25207;-67
2020/12/03 06:47:25;;;;;;;42.83;25.00;;;;;;;-2.32;82.95;99556.75;1935355;73;25625;-67
2020/12/03 06:50:13;;;;;;;42.53;22.97;;;;;;;-2.27;82.88;99553.16;1937607;72;27077;-69
2020/12/03 06:53:11;;;;;;;41.37;22.97;;;;;;;-2.19;82.85;99557.28;1857004;76;25292;-69
2020/12/03 06:55:59;;;;;;;44.33;24.10;;;;;;;-2.21;82.61;99547.44;1892947;75;25242;-69
2020/12/03 06:58:44;;;;;;;45.47;25.17;;;;;;;-2.17;82.69;99537.47;1888726;76;25744;-68
2020/12/03 07:01:48;;;;;;;39.77;23.10;;;;;;;-2.10;82.87;99537.70;1892896;75;25534;-67
2020/12/03 07:05:11;;;;;;;39.87;22.70;;;;;;;-2.03;82.67;99537.92;1888836;76;25795;-69
2020/12/03 07:08:09;;;;;;;36.63;20.87;;;;;;;-2.05;82.44;99535.38;1892949;75;25237;-69
2020/12/03 07:11:19;;;;;;;46.07;27.10;;;;;;;-2.03;82.43;99523.74;1889756;75;25750;-68
2020/12/03 07:14:09;;;;;;;44.87;25.10;;;;;;;-2.02;82.53;99524.16;1895049;75;25320;-67
2020/12/03 07:17:03;;;;;;;39.37;22.83;;;;;;;-1.99;82.46;99525.82;1856429;77;25211;-68
2020/12/03 07:19:57;;;;;;;42.60;24.83;;;;;;;-1.95;82.34;99535.98;1928551;74;25194;-67
2020/12/03 07:22:27;;;;;;;42.77;23.90;;;;;;;-1.90;82.35;99526.38;1926911;74;25188;-69
2020/12/03 07:24:53;;;;;;;45.13;25.43;;;;;;;-1.78;82.24;99534.66;1927767;74;25275;-69
2020/12/03 07:27:56;;;;;;;47.40;26.93;;;;;;;-1.70;82.27;99538.70;1927845;74;25251;-68
2020/12/03 07:30:52;;;;;;;46.80;27.33;;;;;;;-1.61;82.30;99536.33;1891155;75;25269;-69
2020/12/03 07:33:24;;;;;;;40.70;24.23;;;;;;;-1.53;81.94;99540.80;1895576;75;25277;-69
2020/12/03 07:36:37;;;;;;;45.17;25.90;;;;;;;-1.47;81.90;99531.18;1891546;75;25620;-69
2020/12/03 07:39:12;;;;;;;43.20;25.47;;;;;;;-1.45;81.54;99536.70;1895853;75;25134;-67
2020/12/03 07:41:51;;;;;;;47.20;26.83;;;;;;;-1.42;81.46;99533.20;1891707;75;25272;-68
2020/12/03 07:44:41;;;;;;;46.23;28.30;;;;;;;-1.36;80.93;99539.45;1889260;75;27011;-68
2020/12/03 07:50:26;;;;;;;47.37;27.47;;;;;;;-1.21;81.79;99548.02;1818312;78;26863;-67
2020/12/03 07:53:22;;;;;;;43.13;25.63;;;;;;;-1.16;80.96;99547.45;1748083;80;25703;-68
2020/12/03 07:55:57;;;;;;;44.20;23.80;;;;;;;-1.07;81.24;99541.58;1889610;75;27396;-69
2020/12/03 07:58:41;;;;;;;49.37;29.97;;;;;;;-1.08;80.47;99545.07;1857854;76;25228;-69
2020/12/03 08:01:36;;;;;;;44.83;26.87;;;;;;;-1.05;81.03;99546.27;1857726;77;25180;-67
2020/12/03 08:04:20;;;;;;;50.83;29.23;;;;;;;-1.04;80.95;99543.65;1857796;77;25244;-68
2020/12/03 08:07:08;;;;;;;51.97;30.00;;;;;;;-1.03;80.99;99546.61;1826968;77;25260;-68
2020/12/03 08:09:46;;;;;;;48.70;27.80;;;;;;;-0.99;80.91;99546.06;1857847;77;25172;-70
2020/12/03 08:12:18;;;;;;;46.77;27.33;;;;;;;-0.94;80.97;99548.91;1857780;76;25221;-67
2020/12/03 08:14:57;;;;;;;45.17;26.43;;;;;;;-0.95;80.61;99542.50;1827010;77;25304;-68
2020/12/03 08:17:29;;;;;;;45.27;25.77;;;;;;;-0.89;80.57;99546.16;1857838;76;25248;-68
2020/12/03 08:20:15;;;;;;;45.37;28.00;;;;;;;-0.85;80.88;99547.77;1857879;76;25181;-68
2020/12/03 08:22:46;;;;;;;46.23;26.60;;;;;;;-0.86;80.23;99551.69;1857756;77;25231;-67
2020/12/03 08:25:18;;;;;;;49.50;27.27;;;;;;;-0.88;80.53;99554.31;1857797;76;25318;-67
2020/12/03 08:27:58;;;;;;;45.23;27.43;;;;;;;-0.88;80.52;99549.16;1857757;77;25885;-67
2020/12/03 08:33:17;;;;;;;47.73;27.93;;;;;;;-0.92;80.20;99552.73;1889278;76;26810;-68
2020/12/03 08:35:57;;;;;;;50.87;29.37;;;;;;;-0.99;80.41;99562.41;1860101;77;25659;-68
2020/12/03 08:38:29;;;;;;;47.13;27.50;;;;;;;-0.99;80.63;99566.71;1860172;77;25273;-68
2020/12/03 08:40:59;;;;;;;47.57;28.63;;;;;;;-0.97;80.61;99559.79;1860141;77;25692;-68
2020/12/03 08:43:25;;;;;;;45.77;27.70;;;;;;;-0.95;80.73;99558.83;1860106;77;25834;-68
2020/12/03 08:46:01;;;;;;;50.50;29.83;;;;;;;-0.92;80.87;99560.48;1860172;76;25257;-68
2020/12/03 08:48:26;;;;;;;45.03;26.40;;;;;;;-0.89;80.67;99563.41;1859947;77;25696;-69
2020/12/03 08:51:05;;;;;;;53.33;31.00;;;;;;;-0.87;80.66;99567.64;1843824;77;25296;-69
2020/12/03 08:53:34;;;;;;;48.03;27.70;;;;;;;-0.89;80.80;99562.95;1826479;78;25224;-69
2020/12/03 08:59:18;;;;;;;55.87;30.43;;;;;;;-0.79;80.98;99551.45;1849834;76;26833;-68
2020/12/03 09:01:51;;;;;;;51.27;28.43;;;;;;;-0.82;80.92;99553.27;1808824;78;25195;-69
2020/12/03 09:04:25;;;;;;;48.73;26.07;;;;;;;-0.78;81.03;99551.00;1819731;77;25712;-68
2020/12/03 09:06:52;;;;;;;47.70;25.87;;;;;;;-0.78;80.93;99545.83;1819822;78;25725;-68
2020/12/03 09:09:22;;;;;;;46.53;26.80;;;;;;;-0.80;80.93;99542.00;1819821;78;25299;-69
2020/12/03 09:11:49;;;;;;;45.90;27.43;;;;;;;-0.85;81.12;99540.02;1819759;78;25274;-68
2020/12/03 09:14:17;;;;;;;48.43;25.67;;;;;;;-0.89;81.22;99547.45;1819793;78;25345;-68
2020/12/03 09:16:48;;;;;;;45.63;25.77;;;;;;;-0.88;81.44;99542.70;1819886;78;25184;-68
2020/12/03 09:19:25;;;;;;;50.90;29.73;;;;;;;-0.90;81.42;99540.62;1819702;77;25275;-69
2020/12/03 09:21:52;;;;;;;43.80;26.27;;;;;;;-0.91;81.47;99541.95;1787667;77;25358;-69
2020/12/03 09:24:24;;;;;;;45.20;25.87;;;;;;;-0.93;81.68;99531.67;1788176;78;25334;-69
2020/12/03 09:26:52;;;;;;;43.77;27.27;;;;;;;-0.97;81.84;99527.06;1819851;77;25258;-68
2020/12/03 09:29:19;;;;;;;44.33;25.87;;;;;;;-0.98;81.85;99532.27;1819778;78;25709;-69
2020/12/03 09:31:46;;;;;;;46.73;27.23;;;;;;;-0.95;81.94;99523.14;1787906;78;25355;-69
2020/12/03 09:34:13;;;;;;;45.00;26.83;;;;;;;-0.96;81.93;99520.15;1819537;77;25594;-69
2020/12/03 09:36:41;;;;;;;46.77;28.43;;;;;;;-0.94;81.94;99519.65;1819633;77;25310;-69
2020/12/03 09:39:08;;;;;;;48.47;27.50;;;;;;;-0.92;82.10;99518.31;1757164;78;25622;-69
2020/12/03 09:41:35;;;;;;;49.83;27.87;;;;;;;-0.88;82.15;99521.20;1759552;77;25263;-69
2020/12/03 09:44:07;;;;;;;50.63;28.43;;;;;;;-0.84;82.17;99515.03;1819553;77;25256;-68
2020/12/03 09:46:34;;;;;;;47.77;27.63;;;;;;;-0.84;82.30;99510.73;1819097;78;25085;-69
2020/12/03 09:49:01;;;;;;;44.70;26.27;;;;;;;-0.86;82.29;99506.05;1819886;77;25202;-69
2020/12/03 09:51:28;;;;;;;47.87;28.07;;;;;;;-0.88;82.28;99498.80;1796461;78;25736;-69
2020/12/03 09:53:57;;;;;;;50.83;29.27;;;;;;;-0.92;82.26;99495.07;1787410;79;25228;-69
2020/12/03 09:56:24;;;;;;;52.17;31.70;;;;;;;-1.02;82.47;99488.06;1732153;80;25628;-69
2020/12/03 09:58:58;;;;;;;50.77;28.73;;;;;;;-0.96;82.45;99485.30;1787366;79;25704;-69
2020/12/03 10:02:09;;;;;;;48.20;28.27;;;;;;;-0.95;82.46;99481.83;1787438;80;25131;-69
2020/12/03 10:05:13;;;;;;;69.80;38.87;;;;;;;-0.96;82.43;99474.97;1787473;80;25246;-68
2020/12/03 10:07:55;;;;;;;56.33;34.07;;;;;;;-0.99;82.52;99465.60;1787504;79;25198;-67
2020/12/03 10:10:32;;;;;;;54.77;31.93;;;;;;;-1.01;82.64;99460.08;1786888;80;25277;-68
2020/12/03 10:13:17;;;;;;;52.53;30.53;;;;;;;-1.06;82.57;99461.97;1786993;80;25347;-67
2020/12/03 10:16:10;;;;;;;49.97;30.03;;;;;;;-1.03;82.88;99446.39;1817154;77;27081;-67
2020/12/03 10:18:56;;;;;;;52.80;31.93;;;;;;;-1.06;82.97;99440.03;1788344;80;25260;-68
2020/12/03 10:21:27;;;;;;;53.53;32.57;;;;;;;-1.02;83.09;99435.14;1787742;80;25249;-68
2020/12/03 10:24:19;;;;;;;46.03;27.23;;;;;;;-0.97;83.08;99430.70;1757802;80;25256;-68
2020/12/03 10:27:15;;;;;;;60.03;33.93;;;;;;;-0.96;83.30;99424.17;1757036;81;25750;-70
2020/12/03 10:30:06;;;;;;;51.73;30.80;;;;;;;-0.88;83.26;99416.63;1756909;80;25234;-69
2020/12/03 10:32:31;;;;;;;52.87;31.03;;;;;;;-0.87;83.45;99410.55;1749512;81;25718;-68
2020/12/03 10:34:58;;;;;;;53.03;31.10;;;;;;;-0.86;83.54;99411.80;1757151;80;25385;-68
2020/12/03 10:37:33;;;;;;;52.30;29.93;;;;;;;-0.82;83.70;99400.48;1757163;80;25242;-68
2020/12/03 10:40:12;;;;;;;46.77;27.70;;;;;;;-0.75;83.49;99398.07;1757202;80;25329;-70
2020/12/03 10:42:42;;;;;;;58.63;32.33;;;;;;;-0.76;83.51;99389.91;1756955;81;25690;-70
2020/12/03 10:45:16;;;;;;;50.53;30.87;;;;;;;-0.75;83.68;99382.58;1757167;80;25254;-70
2020/12/03 10:47:52;;;;;;;53.77;32.23;;;;;;;-0.72;83.70;99380.77;1696374;83;25631;-71
2020/12/03 10:50:20;;;;;;;53.97;30.27;;;;;;;-0.75;83.89;99368.37;1716248;83;25309;-71
2020/12/03 10:52:47;;;;;;;51.50;30.83;;;;;;;-0.69;84.11;99362.59;1638578;86;25185;-71
2020/12/03 10:55:17;;;;;;;51.47;31.03;;;;;;;-0.59;83.96;99358.78;1694530;84;25227;-71
2020/12/03 10:57:56;;;;;;;50.57;29.17;;;;;;;-0.45;84.04;99351.38;1665252;85;25320;-71
2020/12/03 11:00:20;;;;;;;48.53;27.73;;;;;;;-0.36;83.96;99341.61;1694023;83;25342;-71
2020/12/03 11:02:47;;;;;;;48.33;29.20;;;;;;;-0.29;83.94;99332.71;1664964;85;25173;-72
2020/12/03 11:05:14;;;;;;;48.87;28.63;;;;;;;-0.15;83.87;99327.01;1694605;83;25218;-71
2020/12/03 11:07:41;;;;;;;56.07;32.43;;;;;;;-0.05;83.84;99330.48;1665033;85;25330;-70
2020/12/03 11:10:08;;;;;;;46.77;28.57;;;;;;;-0.01;83.54;99319.11;1633758;84;25286;-71
2020/12/03 11:12:35;;;;;;;51.40;30.27;;;;;;;0.05;83.57;99327.53;1665222;86;25170;-71
2020/12/03 11:15:04;;;;;;;55.10;33.37;;;;;;;0.10;83.55;99328.19;1694534;83;25784;-71
2020/12/03 11:17:51;;;;;;;56.13;35.53;;;;;;;0.16;83.51;99317.61;1665079;85;25371;-73
2020/12/03 11:20:18;;;;;;;58.60;37.40;;;;;;;0.23;83.48;99316.45;1686418;83;25318;-71
2020/12/03 11:22:56;;;;;;;51.43;32.40;;;;;;;0.26;83.35;99311.62;1665189;86;25213;-70
2020/12/03 11:25:26;;;;;;;47.23;26.40;;;;;;;0.34;83.37;99304.40;1694276;84;25362;-71
2020/12/03 11:27:55;;;;;;;47.33;30.77;;;;;;;0.37;83.26;99299.10;1638390;86;25798;-71
2020/12/03 11:30:26;;;;;;;43.97;27.13;;;;;;;0.38;83.25;99302.52;1694026;84;25277;-70
2020/12/03 11:32:57;;;;;;;46.73;28.63;;;;;;;0.44;83.20;99304.87;1664681;85;25170;-71
2020/12/03 11:35:30;;;;;;;48.83;29.80;;;;;;;0.51;83.23;99290.77;1694119;84;25136;-71
2020/12/03 11:38:03;;;;;;;47.03;30.10;;;;;;;0.54;83.24;99282.88;1664724;84;25300;-71
2020/12/03 11:50:55;;;;;;;42.63;27.30;;;;;;;0.41;83.22;99282.99;1843200;77;25267;-70
2020/12/03 11:53:22;;;;;;;38.67;23.47;;;;;;;0.36;83.33;99262.02;1826442;78;25631;-70
2020/12/03 11:55:49;;;;;;;41.40;25.97;;;;;;;0.32;83.28;99264.36;1794672;78;25628;-71
2020/12/03 11:58:17;;;;;;;43.40;29.00;;;;;;;0.27;83.38;99253.80;1826521;78;25255;-71
2020/12/03 12:00:47;;;;;;;46.00;29.33;;;;;;;0.27;83.53;99261.55;1794945;78;25224;-71
2020/12/03 12:03:16;;;;;;;34.17;22.60;;;;;;;0.34;83.73;99259.13;1826286;78;25316;-71
2020/12/03 12:08:36;;;;;;;32.23;19.30;;;;;;;0.39;83.77;99228.72;1826350;78;25326;-70
2020/12/03 12:11:05;;;;;;;31.80;18.57;;;;;;;0.41;83.88;99226.08;1825406;78;25235;-70
2020/12/03 12:13:28;;;;;;;29.67;19.13;;;;;;;0.45;83.99;99225.86;1825523;78;25363;-70